createdAt,value
2023-04-24T00:00:32.505Z,85.31
2023-04-24T00:03:00.461Z,84.93
2023-04-24T00:05:28.614Z,84.87
2023-04-24T00:07:56.573Z,85.05
2023-04-24T00:10:24.565Z,84.75
2023-04-24T00:12:52.448Z,85.52
2023-04-24T00:15:22.204Z,85.14
2023-04-24T00:17:50.330Z,85.21
2023-04-24T00:20:18.159Z,84.82
2023-04-24T00:22:46.478Z,85.20
2023-04-24T00:25:14.331Z,85.40
2023-04-24T00:27:42.279Z,85.22
2023-04-24T00:30:10.940Z,84.83
2023-04-24T00:32:40.186Z,84.98
2023-04-24T00:35:08.906Z,85.17
2023-04-24T00:37:36.852Z,85.69
2023-04-24T00:40:05.285Z,85.54
2023-04-24T00:42:33.121Z,85.74
2023-04-24T00:45:01.022Z,85.52
2023-04-24T00:47:29.106Z,85.17
2023-04-24T00:49:58.405Z,85.62
2023-04-24T00:52:26.368Z,85.60
2023-04-24T00:54:54.191Z,85.01
2023-04-24T00:57:22.773Z,85.46
2023-04-24T00:59:50.803Z,85.81
2023-04-24T01:02:18.728Z,85.88
2023-04-24T01:04:46.593Z,85.82
2023-04-24T01:07:15.878Z,86.20
2023-04-24T01:09:44.100Z,86.40
2023-04-24T01:12:12.096Z,86.08
2023-04-24T01:14:40.048Z,86.32
2023-04-24T01:17:08.349Z,86.01
2023-04-24T01:19:36.541Z,86.28
2023-04-24T01:22:04.873Z,86.07
2023-04-24T01:24:34.089Z,86.09
2023-04-24T01:27:02.249Z,86.03
2023-04-24T01:29:30.231Z,86.23
2023-04-24T01:31:59.573Z,85.83
2023-04-24T01:34:27.678Z,85.88
2023-04-24T01:36:55.712Z,86.06
2023-04-24T01:39:24.340Z,85.93
2023-04-24T01:41:53.644Z,86.16
2023-04-24T01:44:21.558Z,86.15
2023-04-24T01:46:49.402Z,86.87
2023-04-24T01:49:17.198Z,86.94
2023-04-24T01:51:45.623Z,86.88
2023-04-24T01:54:13.767Z,87.44
2023-04-24T01:56:43.506Z,87.79
2023-04-24T01:59:13.488Z,87.48
2023-04-24T02:01:41.665Z,87.03
2023-04-24T02:04:10.090Z,86.99
2023-04-24T02:06:38.260Z,86.64
2023-04-24T02:09:06.117Z,85.33
2023-04-24T02:11:33.934Z,84.56
2023-04-24T02:14:01.706Z,83.98
2023-04-24T02:16:33.353Z,83.58
2023-04-24T02:19:01.293Z,82.93
2023-04-24T02:21:29.559Z,82.51
2023-04-24T02:23:57.500Z,82.43
2023-04-24T02:26:25.942Z,82.99
2023-04-24T02:28:53.718Z,82.85
2023-04-24T02:31:21.582Z,83.24
2023-04-24T02:33:51.456Z,83.60
2023-04-24T02:36:19.258Z,83.10
2023-04-24T02:38:47.035Z,83.27
2023-04-24T02:41:14.847Z,83.11
2023-04-24T02:43:42.592Z,83.21
2023-04-24T02:46:10.383Z,83.67
2023-04-24T02:48:38.262Z,83.37
2023-04-24T02:51:07.779Z,83.51
2023-04-24T02:53:35.662Z,83.52
2023-04-24T02:56:03.438Z,83.47
2023-04-24T02:58:31.496Z,83.26
2023-04-24T03:00:59.313Z,83.62
2023-04-24T03:03:27.371Z,83.50
2023-04-24T03:05:56.428Z,83.30
2023-04-24T03:08:25.597Z,83.69
2023-04-24T03:10:53.356Z,82.68
2023-04-24T03:13:21.180Z,82.33
2023-04-24T03:15:49.184Z,82.76
2023-04-24T03:18:17.066Z,81.38
2023-04-24T03:20:44.925Z,79.27
2023-04-24T03:23:12.651Z,78.54
2023-04-24T03:25:41.869Z,78.00
2023-04-24T03:28:09.629Z,77.93
2023-04-24T03:30:37.377Z,78.37
2023-04-24T03:33:05.351Z,78.58
2023-04-24T03:35:33.182Z,78.92
2023-04-24T03:38:00.973Z,79.09
2023-04-24T03:40:30.555Z,79.53
2023-04-24T03:42:59.762Z,79.58
2023-04-24T03:45:27.530Z,79.74
2023-04-24T03:47:55.298Z,79.90
2023-04-24T03:50:23.190Z,80.17
2023-04-24T03:52:51.016Z,80.01
2023-04-24T03:55:18.785Z,79.58
2023-04-24T03:57:46.616Z,78.78
2023-04-24T04:00:16.726Z,77.90
2023-04-24T04:02:44.594Z,77.55
2023-04-24T04:05:12.523Z,76.75
2023-04-24T04:07:40.613Z,76.31
2023-04-24T04:10:09.326Z,75.70
2023-04-24T04:12:37.083Z,75.95
2023-04-24T04:15:05.704Z,75.35
2023-04-24T04:17:34.981Z,75.10
2023-04-24T04:20:06.666Z,75.06
2023-04-24T04:22:34.566Z,75.08
2023-04-24T04:25:02.326Z,75.05
2023-04-24T04:27:33.150Z,75.57
2023-04-24T04:30:05.528Z,76.03
2023-04-24T04:32:35.584Z,76.32
2023-04-24T04:35:04.587Z,76.65
2023-04-24T04:37:32.758Z,76.89
2023-04-24T04:40:00.525Z,77.11
2023-04-24T04:42:29.372Z,77.62
2023-04-24T04:44:58.521Z,77.97
2023-04-24T04:47:27.115Z,77.55
2023-04-24T04:49:56.479Z,78.19
2023-04-24T04:52:26.201Z,77.71
2023-04-24T04:54:53.987Z,77.57
2023-04-24T04:57:21.738Z,77.59
2023-04-24T04:59:49.533Z,78.04
2023-04-24T05:02:17.485Z,78.14
2023-04-24T05:04:46.447Z,78.30
2023-04-24T05:07:15.908Z,78.27
2023-04-24T05:09:43.876Z,77.81
2023-04-24T05:12:11.926Z,76.91
2023-04-24T05:14:39.669Z,76.68
2023-04-24T05:17:07.463Z,75.99
2023-04-24T05:19:37.067Z,75.81
2023-04-24T05:22:07.564Z,75.69
2023-04-24T05:24:36.781Z,75.34
2023-04-24T05:27:05.594Z,75.69
2023-04-24T05:29:34.204Z,75.15
2023-04-24T05:32:02.387Z,75.71
2023-04-24T05:34:30.252Z,76.09
2023-04-24T05:36:58.132Z,76.55
2023-04-24T05:39:26.744Z,76.49
2023-04-24T05:41:56.094Z,76.53
2023-04-24T05:44:23.872Z,76.38
2023-04-24T05:46:51.824Z,75.43
2023-04-24T05:49:19.653Z,74.66
2023-04-24T05:51:47.417Z,74.19
2023-04-24T05:54:15.128Z,74.16
2023-04-24T05:56:43.338Z,74.10
2023-04-24T05:59:12.583Z,73.92
2023-04-24T06:01:40.357Z,73.84
2023-04-24T06:04:08.272Z,73.03
2023-04-24T06:06:37.237Z,73.17
2023-04-24T06:09:05.919Z,73.41
2023-04-24T06:11:33.860Z,73.43
2023-04-24T06:14:01.659Z,72.63
2023-04-24T06:16:32.303Z,72.86
2023-04-24T06:19:00.379Z,72.95
2023-04-24T06:21:28.623Z,72.68
2023-04-24T06:23:57.082Z,73.09
2023-04-24T06:26:26.013Z,72.99
2023-04-24T06:28:54.792Z,73.15
2023-04-24T06:31:22.740Z,73.25
2023-04-24T06:33:51.954Z,73.05
2023-04-24T06:36:19.879Z,73.52
2023-04-24T06:38:47.639Z,73.02
2023-04-24T06:41:15.400Z,71.05
2023-04-24T06:43:43.147Z,71.44
2023-04-24T06:46:10.926Z,71.95
2023-04-24T06:48:38.740Z,71.48
2023-04-24T06:51:07.975Z,70.73
2023-04-24T06:53:36.441Z,70.77
2023-04-24T06:56:05.083Z,70.44
2023-04-24T06:58:33.064Z,69.60
2023-04-24T07:01:00.850Z,69.65
2023-04-24T07:03:28.787Z,70.60
2023-04-24T07:05:57.111Z,70.85
2023-04-24T07:08:26.374Z,70.88
2023-04-24T07:10:54.119Z,70.55
2023-04-24T07:13:21.855Z,70.67
2023-04-24T07:15:51.706Z,70.83
2023-04-24T07:18:19.699Z,70.71
2023-04-24T07:20:47.452Z,70.34
2023-04-24T07:23:15.239Z,69.74
2023-04-24T07:25:44.351Z,69.74
2023-04-24T07:28:12.141Z,69.59
2023-04-24T07:30:39.995Z,69.83
2023-04-24T07:33:07.920Z,70.24
2023-04-24T07:35:36.450Z,69.51
2023-04-24T07:38:04.254Z,68.31
2023-04-24T07:40:31.954Z,68.67
2023-04-24T07:43:01.256Z,69.76
2023-04-24T07:45:29.322Z,69.66
2023-04-24T07:47:57.282Z,69.83
2023-04-24T07:50:25.045Z,69.25
2023-04-24T07:52:52.810Z,69.01
2023-04-24T07:55:23.355Z,67.26
2023-04-24T07:57:53.376Z,67.18
2023-04-24T08:00:22.810Z,67.06
2023-04-24T08:02:50.849Z,66.72
2023-04-24T08:05:19.058Z,66.14
2023-04-24T08:07:49.749Z,65.57
2023-04-24T08:10:17.675Z,65.27
2023-04-24T08:12:45.429Z,64.88
2023-04-24T08:15:13.155Z,65.63
2023-04-24T08:17:42.381Z,66.22
2023-04-24T08:20:23.339Z,66.55
2023-04-24T08:22:51.118Z,65.55
2023-04-24T08:25:20.153Z,65.35
2023-04-24T08:27:47.948Z,65.53
2023-04-24T08:30:15.987Z,65.71
2023-04-24T08:32:45.184Z,65.93
2023-04-24T08:35:13.457Z,66.05
2023-04-24T08:37:41.441Z,65.94
2023-04-24T08:40:15.154Z,65.26
2023-04-24T08:42:44.391Z,64.51
2023-04-24T08:45:13.318Z,65.32
2023-04-24T08:47:42.377Z,65.36
2023-04-24T08:50:13.577Z,66.01
2023-04-24T08:52:41.623Z,65.55
2023-04-24T08:55:09.972Z,65.16
2023-04-24T08:57:41.098Z,65.89
2023-04-24T09:00:11.939Z,65.81
2023-04-24T09:02:43.606Z,66.60
2023-04-24T09:05:13.150Z,66.67
2023-04-24T09:07:42.169Z,65.79
2023-04-24T09:10:10.218Z,65.96
2023-04-24T09:12:38.000Z,66.23
2023-04-24T09:15:06.722Z,65.93
2023-04-24T09:17:36.517Z,65.91
2023-04-24T09:20:05.208Z,65.78
2023-04-24T09:22:34.434Z,65.91
2023-04-24T09:25:05.001Z,66.31
2023-04-24T09:27:33.214Z,66.12
2023-04-24T09:30:01.664Z,65.83
2023-04-24T09:32:31.050Z,65.89
2023-04-24T09:35:10.245Z,66.04
2023-04-24T09:37:40.477Z,66.24
2023-04-24T09:40:13.430Z,66.01
2023-04-24T09:42:41.466Z,66.71
2023-04-24T09:45:15.638Z,66.53
2023-04-24T09:47:44.311Z,66.96
2023-04-24T09:50:14.149Z,67.03
2023-04-24T09:52:44.966Z,67.38
2023-04-24T09:55:14.280Z,67.54
2023-04-24T09:57:50.242Z,67.98
2023-04-24T10:00:21.720Z,68.48
2023-04-24T10:02:53.115Z,69.19
2023-04-24T10:05:21.803Z,70.75
2023-04-24T10:07:52.963Z,71.87
2023-04-24T10:10:21.203Z,73.15
2023-04-24T10:12:49.217Z,73.71
2023-04-24T10:15:21.546Z,74.25
2023-04-24T10:17:53.464Z,74.54
2023-04-24T10:20:23.091Z,74.41
2023-04-24T10:22:53.436Z,74.01
2023-04-24T10:25:22.946Z,74.03
2023-04-24T10:27:51.886Z,73.64
2023-04-24T10:30:20.689Z,71.67
2023-04-24T10:32:48.726Z,71.17
2023-04-24T10:35:17.734Z,70.85
2023-04-24T10:37:47.505Z,69.57
2023-04-24T10:40:20.401Z,69.22
2023-04-24T10:42:49.902Z,68.73
2023-04-24T10:45:22.506Z,67.24
2023-04-24T10:47:54.563Z,66.80
2023-04-24T10:50:22.965Z,66.92
2023-04-24T10:52:52.388Z,65.90
2023-04-24T10:55:41.667Z,65.61
2023-04-24T10:58:09.367Z,65.52
2023-04-24T11:00:39.159Z,64.75
2023-04-24T11:03:07.721Z,64.25
2023-04-24T11:05:53.243Z,63.99
2023-04-24T11:08:26.966Z,61.79
2023-04-24T11:11:01.809Z,60.31
2023-04-24T11:14:07.505Z,60.92
2023-04-24T11:16:39.157Z,61.11
2023-04-24T11:19:08.616Z,62.00
2023-04-24T11:21:44.096Z,62.26
2023-04-24T11:24:38.909Z,64.51
2023-04-24T11:27:16.038Z,65.76
2023-04-24T11:29:46.080Z,70.99
2023-04-24T11:32:19.680Z,71.37
2023-04-24T11:34:52.133Z,73.50
2023-04-24T11:37:19.882Z,74.74
2023-04-24T11:39:47.639Z,75.56
2023-04-24T11:42:18.161Z,75.81
2023-04-24T11:44:48.591Z,76.28
2023-04-24T11:47:16.463Z,76.81
2023-04-24T11:49:44.247Z,76.12
2023-04-24T11:52:12.761Z,76.08
2023-04-24T11:54:40.592Z,75.96
2023-04-24T11:57:08.603Z,75.25
2023-04-24T11:59:40.555Z,74.19
2023-04-24T12:02:08.477Z,72.66
2023-04-24T12:04:43.189Z,70.83
2023-04-24T12:07:11.471Z,70.65
2023-04-24T12:09:47.643Z,69.47
2023-04-24T12:12:16.759Z,69.98
2023-04-24T12:14:51.417Z,70.44
2023-04-24T12:17:19.312Z,70.60
2023-04-24T12:19:48.233Z,70.75
2023-04-24T12:22:16.218Z,69.21
2023-04-24T12:25:01.533Z,69.33
2023-04-24T12:27:31.841Z,68.54
2023-04-24T12:30:02.159Z,67.53
2023-04-24T12:32:30.013Z,67.92
2023-04-24T12:34:58.169Z,67.49
2023-04-24T12:37:27.027Z,63.92
2023-04-24T12:40:01.906Z,63.56
2023-04-24T12:42:30.429Z,62.73
2023-04-24T12:44:59.745Z,63.02
2023-04-24T12:47:29.736Z,62.50
2023-04-24T12:49:57.615Z,64.88
2023-04-24T12:52:26.585Z,65.47
2023-04-24T12:54:55.346Z,65.52
2023-04-24T12:57:23.188Z,66.25
2023-04-24T12:59:51.502Z,66.03
2023-04-24T13:02:19.702Z,64.86
2023-04-24T13:04:49.208Z,64.99
2023-04-24T13:07:17.362Z,65.07
2023-04-24T13:09:46.169Z,64.75
2023-04-24T13:12:14.372Z,63.99
2023-04-24T13:14:42.084Z,61.34
2023-04-24T13:17:10.326Z,61.45
2023-04-24T13:19:39.242Z,60.63
2023-04-24T13:22:08.977Z,61.69
2023-04-24T13:24:38.008Z,59.42
2023-04-24T13:27:07.577Z,58.63
2023-04-24T13:29:35.305Z,59.39
2023-04-24T13:32:03.304Z,59.02
2023-04-24T13:34:31.214Z,59.07
2023-04-24T13:37:00.137Z,57.86
2023-04-24T13:39:29.386Z,57.18
2023-04-24T13:41:57.191Z,56.93
2023-04-24T13:44:25.506Z,56.37
2023-04-24T13:46:57.796Z,54.93
2023-04-24T13:49:26.993Z,56.30
2023-04-24T13:51:55.651Z,55.13
2023-04-24T13:54:24.489Z,56.18
2023-04-24T13:56:53.937Z,58.12
2023-04-24T13:59:22.339Z,58.09
2023-04-24T14:01:50.259Z,58.78
2023-04-24T14:04:18.489Z,58.03
2023-04-24T14:06:46.613Z,57.54
2023-04-24T14:09:14.804Z,56.13
2023-04-24T14:11:42.692Z,56.51
2023-04-24T14:14:12.585Z,56.65
2023-04-24T14:16:40.619Z,56.91
2023-04-24T14:19:08.513Z,56.87
2023-04-24T14:21:36.384Z,55.68
2023-04-24T14:24:04.138Z,53.80
2023-04-24T14:26:31.942Z,54.59
2023-04-24T14:29:11.720Z,55.09
2023-04-24T14:31:43.902Z,55.63
2023-04-24T14:34:11.784Z,54.49
2023-04-24T14:36:39.869Z,54.82
2023-04-24T14:39:08.545Z,53.77
2023-04-24T14:41:37.226Z,54.48
2023-04-24T14:44:05.889Z,53.66
2023-04-24T14:46:34.102Z,54.27
2023-04-24T14:49:03.421Z,54.32
2023-04-24T14:51:31.447Z,54.69
2023-04-24T14:53:59.298Z,55.67
2023-04-24T14:56:27.138Z,55.36
2023-04-24T14:58:54.912Z,55.96
2023-04-24T15:01:22.977Z,56.01
2023-04-24T15:03:51.064Z,56.12
2023-04-24T15:06:21.219Z,55.59
2023-04-24T15:08:50.387Z,55.66
2023-04-24T15:11:18.788Z,56.73
2023-04-24T15:13:47.520Z,57.99
2023-04-24T15:16:15.622Z,57.44
2023-04-24T15:18:43.546Z,56.80
2023-04-24T15:21:11.319Z,58.19
2023-04-24T15:23:40.453Z,56.46
2023-04-24T15:26:08.206Z,55.79
2023-04-24T15:28:36.140Z,56.28
2023-04-24T15:31:03.872Z,56.50
2023-04-24T15:33:31.643Z,56.95
2023-04-24T15:35:59.390Z,56.67
2023-04-24T15:38:27.578Z,57.26
2023-04-24T15:40:56.650Z,57.23
2023-04-24T15:43:24.441Z,57.56
2023-04-24T15:45:52.523Z,57.84
2023-04-24T15:48:20.964Z,58.96
2023-04-24T15:50:48.673Z,57.79
2023-04-24T15:53:22.019Z,57.84
2023-04-24T15:55:49.995Z,57.20
2023-04-24T15:58:19.848Z,56.87
2023-04-24T16:00:47.588Z,57.16
2023-04-24T16:03:15.435Z,56.71
2023-04-24T16:05:43.340Z,56.12
2023-04-24T16:08:11.671Z,55.57
2023-04-24T16:10:39.425Z,55.06
2023-04-24T16:13:07.281Z,52.36
2023-04-24T16:15:37.401Z,51.49
2023-04-24T16:18:05.364Z,51.80
2023-04-24T16:20:33.222Z,52.91
2023-04-24T16:23:00.991Z,52.65
2023-04-24T16:25:28.925Z,53.89
2023-04-24T16:27:57.178Z,53.37
2023-04-24T16:30:25.229Z,53.49
2023-04-24T16:32:54.466Z,53.99
2023-04-24T16:35:22.236Z,54.62
2023-04-24T16:37:49.983Z,54.39
2023-04-24T16:40:17.763Z,55.03
2023-04-24T16:42:45.538Z,54.40
2023-04-24T16:45:13.348Z,54.99
2023-04-24T16:47:41.149Z,55.40
2023-04-24T16:50:11.596Z,55.70
2023-04-24T16:52:39.523Z,55.98
2023-04-24T16:55:08.980Z,56.17
2023-04-24T16:57:37.622Z,56.51
2023-04-24T17:00:06.445Z,56.45
2023-04-24T17:02:34.299Z,56.41
2023-04-24T17:05:02.381Z,55.83
2023-04-24T17:07:32.108Z,56.10
2023-04-24T17:09:59.902Z,56.47
2023-04-24T17:12:27.769Z,56.67
2023-04-24T17:14:55.825Z,56.74
2023-04-24T17:17:25.533Z,57.16
2023-04-24T17:19:53.390Z,57.18
2023-04-24T17:22:21.383Z,57.46
2023-04-24T17:24:50.571Z,57.52
2023-04-24T17:27:18.405Z,57.78
2023-04-24T17:29:46.172Z,58.24
2023-04-24T17:32:13.929Z,57.67
2023-04-24T17:34:41.726Z,58.62
2023-04-24T17:37:09.662Z,59.32
2023-04-24T17:39:37.365Z,61.00
2023-04-24T17:42:06.983Z,61.98
2023-04-24T17:44:34.759Z,64.16
2023-04-24T17:47:03.961Z,65.02
2023-04-24T17:49:31.704Z,66.59
2023-04-24T17:51:59.720Z,67.09
2023-04-24T17:54:27.550Z,68.19
2023-04-24T17:56:55.406Z,68.74
2023-04-24T17:59:24.892Z,68.64
2023-04-24T18:01:53.152Z,69.57
2023-04-24T18:04:21.182Z,69.56
2023-04-24T18:06:49.064Z,69.50
2023-04-24T18:09:18.958Z,70.03
2023-04-24T18:11:46.730Z,71.43
2023-04-24T18:14:15.100Z,72.68
2023-04-24T18:16:44.178Z,73.93
2023-04-24T18:19:11.893Z,75.19
2023-04-24T18:21:39.734Z,76.64
2023-04-24T18:24:07.779Z,77.71
2023-04-24T18:26:35.555Z,78.67
2023-04-24T18:29:03.361Z,79.31
2023-04-24T18:31:32.603Z,79.61
2023-04-24T18:34:01.869Z,80.15
2023-04-24T18:36:29.625Z,80.35
2023-04-24T18:38:57.438Z,80.38
2023-04-24T18:41:25.140Z,80.56
2023-04-24T18:43:52.968Z,80.69
2023-04-24T18:46:20.773Z,80.84
2023-04-24T18:48:48.730Z,80.59
2023-04-24T18:51:17.998Z,81.13
2023-04-24T18:53:45.774Z,80.94
2023-04-24T18:56:13.588Z,80.98
2023-04-24T18:58:44.364Z,81.06
2023-04-24T19:01:12.176Z,81.31
2023-04-24T19:03:40.012Z,81.33
2023-04-24T19:06:07.758Z,81.45
2023-04-24T19:08:38.561Z,81.85
2023-04-24T19:11:06.404Z,81.95
2023-04-24T19:13:34.523Z,81.97
2023-04-24T19:16:02.300Z,82.47
2023-04-24T19:18:30.551Z,82.90
2023-04-24T19:20:59.018Z,82.69
2023-04-24T19:23:27.140Z,82.55
2023-04-24T19:25:56.240Z,82.80
2023-04-24T19:28:23.990Z,82.95
2023-04-24T19:30:51.712Z,83.26
2023-04-24T19:33:19.553Z,83.38
2023-04-24T19:35:47.417Z,83.15
2023-04-24T19:38:15.159Z,83.41
2023-04-24T19:40:42.917Z,83.56
2023-04-24T19:43:12.567Z,83.51
2023-04-24T19:45:40.773Z,83.48
2023-04-24T19:48:09.200Z,82.85
2023-04-24T19:50:37.669Z,83.13
2023-04-24T19:53:06.649Z,82.76
2023-04-24T19:55:34.803Z,82.95
2023-04-24T19:58:02.528Z,82.95
2023-04-24T20:00:32.013Z,82.95
2023-04-24T20:02:59.840Z,82.82
2023-04-24T20:05:27.795Z,82.52
2023-04-24T20:07:55.664Z,82.62
2023-04-24T20:10:23.493Z,82.79
2023-04-24T20:12:51.567Z,82.27
2023-04-24T20:15:19.557Z,82.03
2023-04-24T20:17:48.844Z,81.97
2023-04-24T20:20:16.953Z,81.61
2023-04-24T20:22:44.737Z,81.67
2023-04-24T20:25:13.385Z,81.63
2023-04-24T20:27:41.977Z,81.16
2023-04-24T20:30:13.242Z,81.83
2023-04-24T20:32:41.466Z,81.94
2023-04-24T20:35:11.986Z,82.06
2023-04-24T20:37:40.081Z,82.08
2023-04-24T20:40:09.900Z,82.03
2023-04-24T20:42:38.355Z,81.91
2023-04-24T20:45:08.209Z,81.23
2023-04-24T20:47:36.862Z,81.19
2023-04-24T20:50:06.309Z,81.82
2023-04-24T20:52:35.671Z,81.10
2023-04-24T20:55:03.737Z,81.53
2023-04-24T20:57:32.157Z,81.69
2023-04-24T20:59:59.992Z,81.86
2023-04-24T21:02:27.886Z,82.07
2023-04-24T21:04:55.751Z,82.20
2023-04-24T21:07:24.611Z,82.40
2023-04-24T21:09:53.777Z,82.50
2023-04-24T21:12:21.512Z,82.36
2023-04-24T21:14:51.066Z,82.03
2023-04-24T21:17:19.273Z,82.24
2023-04-24T21:19:47.064Z,82.10
2023-04-24T21:22:14.818Z,82.32
2023-04-24T21:24:42.661Z,82.36
2023-04-24T21:27:11.820Z,82.53
2023-04-24T21:29:39.706Z,82.63
2023-04-24T21:32:07.546Z,82.66
2023-04-24T21:34:35.408Z,82.75
2023-04-24T21:37:03.143Z,82.81
2023-04-24T21:39:30.902Z,82.74
2023-04-24T21:41:59.012Z,82.50
2023-04-24T21:44:28.217Z,82.38
2023-04-24T21:46:55.974Z,82.12
2023-04-24T21:49:23.746Z,81.95
2023-04-24T21:51:51.524Z,81.66
2023-04-24T21:54:20.528Z,81.32
2023-04-24T21:56:48.714Z,81.25
2023-04-24T21:59:16.673Z,81.13
2023-04-24T22:01:45.973Z,80.68
2023-04-24T22:04:14.253Z,80.99
2023-04-24T22:06:42.363Z,81.32
2023-04-24T22:09:10.994Z,81.44
2023-04-24T22:11:39.111Z,81.26
2023-04-24T22:14:07.536Z,81.18
2023-04-24T22:16:35.497Z,81.38
2023-04-24T22:19:05.028Z,81.69
2023-04-24T22:21:33.415Z,81.14
2023-04-24T22:24:01.337Z,81.54
2023-04-24T22:26:29.205Z,81.48
2023-04-24T22:28:57.249Z,81.58
2023-04-24T22:31:25.249Z,81.98
2023-04-24T22:33:53.289Z,81.95
2023-04-24T22:36:22.841Z,82.01
2023-04-24T22:38:50.727Z,82.15
2023-04-24T22:41:18.559Z,82.03
2023-04-24T22:43:46.916Z,82.27
2023-04-24T22:46:14.862Z,82.02
2023-04-24T22:48:42.636Z,82.16
2023-04-24T22:51:10.975Z,82.48
2023-04-24T22:53:40.251Z,82.50
2023-04-24T22:56:08.558Z,82.85
2023-04-24T22:58:36.779Z,83.00
2023-04-24T23:01:05.455Z,83.14
2023-04-24T23:03:33.801Z,83.11
2023-04-24T23:06:01.805Z,83.72
2023-04-24T23:08:30.695Z,83.78
2023-04-24T23:11:00.095Z,84.13
2023-04-24T23:13:28.317Z,83.87
2023-04-24T23:15:56.348Z,83.92
2023-04-24T23:18:24.319Z,84.23
2023-04-24T23:20:53.073Z,84.38
2023-04-24T23:23:21.201Z,84.41
2023-04-24T23:25:49.285Z,84.44
2023-04-24T23:28:18.561Z,84.36
2023-04-24T23:30:46.428Z,84.42
2023-04-24T23:33:15.057Z,84.65
2023-04-24T23:35:43.051Z,84.97
2023-04-24T23:38:11.088Z,84.84
2023-04-24T23:40:39.396Z,84.93
2023-04-24T23:43:08.529Z,84.99
2023-04-24T23:45:38.496Z,85.07
2023-04-24T23:48:06.575Z,84.99
2023-04-24T23:50:34.682Z,85.57
2023-04-24T23:53:02.646Z,85.57
2023-04-24T23:55:30.630Z,85.62
2023-04-24T23:57:58.724Z,86.00
